Time;durP1;ratioP1;P1;durP2;ratioP2;P2;SDS_P1;SDS_P2;PMS_P1;PMS_P2;Temp;Humidity;BMP_temperature;BMP_pressure;BME280_temperature;BME280_humidity;BME280_pressure;Samples;Min_cycle;Max_cycle;Signal;HPM_P1;HPM_P2
2023/12/07 00:00:51;;;;;;;;;;;14.40;84.10;;;;;;5072545;28;19908;-71
2023/12/07 00:03:17;;;;;;;;;;;14.60;83.90;;;;;;5054331;28;20305;-71
2023/12/07 00:05:43;;;;;;;;;;;14.50;84.10;;;;;;5072632;28;19909;-71
2023/12/07 00:08:10;;;;;;;;;;;14.50;84.40;;;;;;5072246;28;20262;-71
2023/12/07 00:10:36;;;;;;;;;;;14.50;84.90;;;;;;5072530;28;19908;-71
2023/12/07 00:13:02;;;;;;;;;;;14.50;84.50;;;;;;5072293;28;20015;-71
2023/12/07 00:15:28;;;;;;;;;;;14.60;84.40;;;;;;5072433;28;19936;-71
2023/12/07 00:17:53;;;;;;;;;;;14.50;84.20;;;;;;5072107;28;20492;-71
2023/12/07 00:20:19;;;;;;;;;;;14.40;84.20;;;;;;5072112;28;19999;-71
2023/12/07 00:22:45;;;;;;;;;;;14.50;84.60;;;;;;5072949;28;19951;-77
2023/12/07 00:25:11;;;;;;;;;;;14.40;84.20;;;;;;5072220;28;19908;-77
2023/12/07 00:27:37;;;;;;;;;;;14.30;84.10;;;;;;5072089;28;19916;-77
2023/12/07 00:30:03;;;;;;;;;;;14.40;84.20;;;;;;5072175;28;19916;-77
2023/12/07 00:32:29;;;;;;;;;;;14.40;83.00;;;;;;5054511;28;19939;-77
2023/12/07 00:34:55;;;;;;;;;;;14.40;83.60;;;;;;5072284;28;19915;-78
2023/12/07 00:37:21;;;;;;;;;;;14.40;84.00;;;;;;5072357;28;20007;-77
2023/12/07 00:39:47;;;;;;;;;;;14.40;84.30;;;;;;5073595;28;19999;-77
2023/12/07 00:42:13;;;;;;;;;;;14.30;84.20;;;;;;5075880;28;20434;-77
2023/12/07 00:44:42;;;;;;;;;;;14.40;84.40;;;;;;5076178;28;19913;-77
2023/12/07 00:47:08;;;;;;;;;;;14.40;84.60;;;;;;5075791;28;19908;-77
2023/12/07 00:49:37;;;;;;;;;;;14.30;84.20;;;;;;5075802;28;19915;-77
2023/12/07 00:52:03;;;;;;;;;;;14.30;84.40;;;;;;5076299;28;19909;-77
2023/12/07 00:54:28;;;;;;;;;;;14.30;83.20;;;;;;5075941;28;20439;-78
2023/12/07 00:56:54;;;;;;;;;;;14.30;84.00;;;;;;5075896;28;19913;-78
2023/12/07 00:59:20;;;;;;;;;;;14.30;83.80;;;;;;5075857;28;19970;-78
2023/12/07 01:01:46;;;;;;;;;;;14.30;83.40;;;;;;5075719;28;19908;-78
2023/12/07 01:04:12;;;;;;;;;;;14.30;84.30;;;;;;5075410;28;19927;-78
2023/12/07 01:06:38;;;;;;;;;;;14.20;84.30;;;;;;5075753;28;19912;-77
2023/12/07 01:09:04;;;;;;;;;;;14.40;84.10;;;;;;5075343;28;19920;-77
2023/12/07 01:11:30;;;;;;;;;;;14.30;84.20;;;;;;5075621;28;19919;-77
2023/12/07 01:13:56;;;;;;;;;;;14.30;84.20;;;;;;5075518;28;19909;-78
2023/12/07 01:16:22;;;;;;;;;;;14.20;84.30;;;;;;5075622;28;19995;-77
2023/12/07 01:18:48;;;;;;;;;;;14.30;84.00;;;;;;5075321;28;20016;-77
2023/12/07 01:21:14;;;;;;;;;;;14.20;83.50;;;;;;5075392;28;19954;-71
2023/12/07 01:23:40;;;;;;;;;;;14.20;84.00;;;;;;5075361;28;19914;-71
2023/12/07 01:26:06;;;;;;;;;;;14.20;84.00;;;;;;5075243;28;19909;-71
2023/12/07 01:28:32;;;;;;;;;;;14.30;84.30;;;;;;5075223;28;19962;-71
2023/12/07 01:30:59;;;;;;;;;;;14.20;83.90;;;;;;5074896;28;19919;-71
2023/12/07 01:33:25;;;;;;;;;;;14.20;83.90;;;;;;5074878;28;19909;-71
2023/12/07 01:35:50;;;;;;;;;;;14.10;83.60;;;;;;5074822;28;19909;-71
2023/12/07 01:38:16;;;;;;;;;;;14.20;83.30;;;;;;5075676;28;19962;-78
2023/12/07 01:40:41;;;;;;;;;;;14.10;83.80;;;;;;5075213;28;20256;-78
2023/12/07 01:43:07;;;;;;;;;;;14.20;83.80;;;;;;5075343;28;20343;-78
2023/12/07 01:45:32;;;;;;;;;;;14.20;83.80;;;;;;5074997;28;19909;-78
2023/12/07 01:47:59;;;;;;;;;;;14.20;83.80;;;;;;5075219;28;19921;-78
2023/12/07 01:50:26;;;;;;;;;;;14.20;83.80;;;;;;5075093;28;19915;-78
2023/12/07 01:52:57;;;;;;;;;;;14.10;83.80;;;;;;5075073;28;19909;-78
2023/12/07 01:55:22;;;;;;;;;;;14.10;78.70;;;;;;5074879;28;19996;-78
2023/12/07 01:57:49;;;;;;;;;;;14.00;83.60;;;;;;5074793;28;19956;-78
2023/12/07 02:00:15;;;;;;;;;;;14.10;83.80;;;;;;5074968;28;19917;-78
2023/12/07 02:02:43;;;;;;;;;;;14.10;83.40;;;;;;5074328;28;19928;-78
2023/12/07 02:05:09;;;;;;;;;;;14.00;83.10;;;;;;5075268;28;19912;-79
2023/12/07 02:07:35;;;;;;;;;;;14.00;83.90;;;;;;5074392;28;19915;-78
2023/12/07 02:10:01;;;;;;;;;;;14.10;83.70;;;;;;5074532;28;19970;-78
2023/12/07 02:12:29;;;;;;;;;;;14.00;83.50;;;;;;5074396;28;19909;-78
2023/12/07 02:14:56;;;;;;;;;;;14.00;83.90;;;;;;5074372;28;19908;-78
2023/12/07 02:17:24;;;;;;;;;;;13.80;83.70;;;;;;5074156;28;19991;-71
2023/12/07 02:20:10;;;;;;;;;;;14.00;83.60;;;;;;5073968;28;20511;-71
2023/12/07 02:22:41;;;;;;;;;;;14.00;78.40;;;;;;5074179;28;19915;-71
2023/12/07 02:25:08;;;;;;;;;;;14.00;78.80;;;;;;5074133;28;19909;-71
2023/12/07 02:27:39;;;;;;;;;;;14.00;83.20;;;;;;5073922;28;19962;-72
2023/12/07 02:30:05;;;;;;;;;;;13.90;83.80;;;;;;5073806;28;19908;-71
2023/12/07 02:32:31;;;;;;;;;;;13.90;81.30;;;;;;5073815;28;19947;-71
2023/12/07 02:34:56;;;;;;;;;;;13.90;83.40;;;;;;5074207;28;19908;-78
2023/12/07 02:37:22;;;;;;;;;;;13.90;83.90;;;;;;5073835;28;20267;-78
2023/12/07 02:39:48;;;;;;;;;;;13.90;84.10;;;;;;5073575;28;19950;-78
2023/12/07 02:42:16;;;;;;;;;;;13.90;84.10;;;;;;5073877;28;19909;-77
2023/12/07 02:44:42;;;;;;;;;;;13.80;83.90;;;;;;5074046;28;19923;-77
2023/12/07 02:47:08;;;;;;;;;;;13.90;83.80;;;;;;5073850;28;20250;-70
2023/12/07 02:49:34;;;;;;;;;;;13.90;84.00;;;;;;5073378;28;19987;-71
2023/12/07 02:52:00;;;;;;;;;;;13.80;84.10;;;;;;5073595;28;19908;-71
2023/12/07 02:54:26;;;;;;;;;;;13.80;84.00;;;;;;5055334;28;19999;-71
2023/12/07 02:56:51;;;;;;;;;;;13.80;83.90;;;;;;5073306;28;19909;-71
2023/12/07 02:59:17;;;;;;;;;;;13.80;83.90;;;;;;5073127;28;19923;-72
2023/12/07 03:01:42;;;;;;;;;;;13.70;83.10;;;;;;5071579;28;20406;-71
2023/12/07 03:04:08;;;;;;;;;;;13.80;84.00;;;;;;5073235;28;19959;-71
2023/12/07 03:06:33;;;;;;;;;;;13.80;84.10;;;;;;5073112;28;19912;-72
2023/12/07 03:08:58;;;;;;;;;;;13.90;84.00;;;;;;5072986;28;19909;-71
2023/12/07 03:11:24;;;;;;;;;;;13.80;84.00;;;;;;5072987;28;19920;-71
2023/12/07 03:13:49;;;;;;;;;;;13.90;84.10;;;;;;5073119;28;20010;-79
2023/12/07 03:16:15;;;;;;;;;;;13.70;84.00;;;;;;5072871;28;19908;-72
2023/12/07 03:18:41;;;;;;;;;;;13.70;83.80;;;;;;5073083;28;19963;-71
2023/12/07 03:21:07;;;;;;;;;;;13.80;83.80;;;;;;5072742;28;19909;-72
2023/12/07 03:23:33;;;;;;;;;;;13.70;84.20;;;;;;5072758;28;19915;-72
2023/12/07 03:25:59;;;;;;;;;;;13.80;84.30;;;;;;5072971;28;19995;-72
2023/12/07 03:28:25;;;;;;;;;;;13.80;84.10;;;;;;5072691;28;20003;-72
2023/12/07 03:30:50;;;;;;;;;;;13.70;84.50;;;;;;5055305;28;19912;-71
2023/12/07 03:33:15;;;;;;;;;;;13.50;84.00;;;;;;5071432;28;19909;-72
2023/12/07 03:35:41;;;;;;;;;;;14.00;84.50;;;;;;5072700;28;19909;-72
2023/12/07 03:38:06;;;;;;;;;;;13.80;83.70;;;;;;5072480;28;19912;-72
2023/12/07 03:40:33;;;;;;;;;;;13.70;84.50;;;;;;5072568;28;19908;-71
2023/12/07 03:42:58;;;;;;;;;;;13.70;83.80;;;;;;5072600;28;19920;-72
2023/12/07 03:45:24;;;;;;;;;;;13.70;84.40;;;;;;5064274;28;19908;-71
2023/12/07 03:47:50;;;;;;;;;;;13.90;84.30;;;;;;5072473;28;19974;-71
2023/12/07 03:50:15;;;;;;;;;;;13.70;84.30;;;;;;5072424;28;20367;-71
2023/12/07 03:52:41;;;;;;;;;;;13.70;84.40;;;;;;5072704;28;19909;-72
2023/12/07 03:55:07;;;;;;;;;;;13.60;84.10;;;;;;5072399;28;19908;-72
2023/12/07 03:57:33;;;;;;;;;;;13.60;82.50;;;;;;5072596;28;19913;-72
2023/12/07 03:59:59;;;;;;;;;;;13.60;84.30;;;;;;5073212;28;19962;-78
2023/12/07 04:02:25;;;;;;;;;;;13.60;83.70;;;;;;5072060;28;19955;-78
2023/12/07 04:04:51;;;;;;;;;;;13.60;83.70;;;;;;5072735;28;19952;-79
2023/12/07 04:07:17;;;;;;;;;;;13.60;84.20;;;;;;5072593;28;19947;-78
2023/12/07 04:09:43;;;;;;;;;;;13.60;84.40;;;;;;5072311;28;20334;-79
2023/12/07 04:12:08;;;;;;;;;;;13.60;84.10;;;;;;5072314;28;19919;-71
2023/12/07 04:14:34;;;;;;;;;;;13.70;84.00;;;;;;5073287;28;19955;-71
2023/12/07 04:17:00;;;;;;;;;;;13.60;83.80;;;;;;5076425;28;19912;-71
2023/12/07 04:19:25;;;;;;;;;;;13.60;84.10;;;;;;5076129;28;19920;-71
2023/12/07 04:21:51;;;;;;;;;;;13.50;84.00;;;;;;5076489;28;19908;-71
2023/12/07 04:24:17;;;;;;;;;;;13.60;84.40;;;;;;5076441;28;19953;-72
2023/12/07 04:26:43;;;;;;;;;;;13.60;83.80;;;;;;5076208;28;20347;-72
2023/12/07 04:29:08;;;;;;;;;;;13.60;84.00;;;;;;5076682;28;19930;-78
2023/12/07 04:31:35;;;;;;;;;;;13.50;84.20;;;;;;5076273;28;19978;-78
2023/12/07 04:34:01;;;;;;;;;;;13.50;84.10;;;;;;5076240;28;19915;-78
2023/12/07 04:36:26;;;;;;;;;;;13.50;84.30;;;;;;5076072;28;19908;-78
2023/12/07 04:38:52;;;;;;;;;;;13.50;84.20;;;;;;5076300;28;19978;-78
2023/12/07 04:41:18;;;;;;;;;;;13.40;83.90;;;;;;5076224;28;19939;-71
2023/12/07 04:43:44;;;;;;;;;;;13.50;84.20;;;;;;5075778;28;19908;-71
2023/12/07 04:46:10;;;;;;;;;;;13.40;83.80;;;;;;5076046;28;19908;-72
2023/12/07 04:48:36;;;;;;;;;;;13.40;83.90;;;;;;5075989;28;20016;-71
2023/12/07 04:51:02;;;;;;;;;;;13.50;84.40;;;;;;5075682;28;19915;-71
2023/12/07 04:53:27;;;;;;;;;;;13.60;83.90;;;;;;5075629;28;19912;-72
2023/12/07 04:55:53;;;;;;;;;;;13.50;83.80;;;;;;5075596;28;20404;-71
2023/12/07 04:58:18;;;;;;;;;;;13.40;83.20;;;;;;5076062;28;19920;-78
2023/12/07 05:00:44;;;;;;;;;;;13.50;83.80;;;;;;5075579;28;19913;-77
2023/12/07 05:03:09;;;;;;;;;;;13.50;83.70;;;;;;5075424;28;20003;-78
2023/12/07 05:05:36;;;;;;;;;;;13.50;83.80;;;;;;5075508;28;20006;-78
2023/12/07 05:08:01;;;;;;;;;;;13.60;84.20;;;;;;5075657;28;19915;-72
2023/12/07 05:10:27;;;;;;;;;;;13.50;83.90;;;;;;5075396;28;19909;-71
2023/12/07 05:12:52;;;;;;;;;;;13.50;84.00;;;;;;5075459;28;20375;-71
2023/12/07 05:15:18;;;;;;;;;;;13.50;83.90;;;;;;5075489;28;20012;-71
2023/12/07 05:17:44;;;;;;;;;;;13.50;83.70;;;;;;5075398;28;20286;-71
2023/12/07 05:20:12;;;;;;;;;;;13.60;84.60;;;;;;5075125;28;19917;-71
2023/12/07 05:22:38;;;;;;;;;;;13.50;82.50;;;;;;5075317;28;19936;-71
2023/12/07 05:25:04;;;;;;;;;;;13.50;83.90;;;;;;5075007;28;19955;-78
2023/12/07 05:27:30;;;;;;;;;;;13.40;82.70;;;;;;5075137;28;19908;-78
2023/12/07 05:29:56;;;;;;;;;;;13.50;84.20;;;;;;5075375;28;19939;-78
2023/12/07 05:32:22;;;;;;;;;;;13.50;84.50;;;;;;5075247;28;19936;-78
2023/12/07 05:34:47;;;;;;;;;;;13.50;84.10;;;;;;5074978;28;19909;-78
2023/12/07 05:37:13;;;;;;;;;;;13.50;84.60;;;;;;5075004;28;20341;-78
2023/12/07 05:39:39;;;;;;;;;;;13.50;84.20;;;;;;5074823;28;19959;-79
2023/12/07 05:42:05;;;;;;;;;;;13.40;84.50;;;;;;5074729;28;19908;-79
2023/12/07 05:44:31;;;;;;;;;;;13.70;83.90;;;;;;5075080;28;19909;-79
2023/12/07 05:46:57;;;;;;;;;;;13.40;84.50;;;;;;5074671;28;19908;-78
2023/12/07 05:49:23;;;;;;;;;;;13.50;84.50;;;;;;5074749;28;20374;-79
2023/12/07 05:51:49;;;;;;;;;;;13.30;83.90;;;;;;5075059;28;20342;-79
2023/12/07 05:54:15;;;;;;;;;;;13.40;84.10;;;;;;5075433;28;19915;-72
2023/12/07 05:56:41;;;;;;;;;;;13.40;84.70;;;;;;5074707;28;19991;-72
2023/12/07 05:59:06;;;;;;;;;;;13.40;84.70;;;;;;5074327;28;20324;-72
2023/12/07 06:01:32;;;;;;;;;;;13.30;84.10;;;;;;5074455;28;19909;-72
2023/12/07 06:03:58;;;;;;;;;;;13.50;84.70;;;;;;5074228;28;19924;-72
2023/12/07 06:06:23;;;;;;;;;;;13.40;84.50;;;;;;5074445;28;20042;-72
2023/12/07 06:08:49;;;;;;;;;;;13.50;84.70;;;;;;5074239;28;19909;-72
2023/12/07 06:11:14;;;;;;;;;;;13.40;84.70;;;;;;5074209;28;19912;-72
2023/12/07 06:13:40;;;;;;;;;;;13.40;84.80;;;;;;5074229;28;19909;-71
2023/12/07 06:16:06;;;;;;;;;;;13.40;84.80;;;;;;5074094;28;19915;-72
2023/12/07 06:18:32;;;;;;;;;;;13.40;83.90;;;;;;5072701;28;19917;-71
2023/12/07 06:20:57;;;;;;;;;;;13.60;84.80;;;;;;5073971;28;19909;-71
2023/12/07 06:23:23;;;;;;;;;;;13.30;83.20;;;;;;5074434;28;20003;-70
2023/12/07 06:25:49;;;;;;;;;;;13.30;84.40;;;;;;5074068;28;19916;-70
2023/12/07 06:28:14;;;;;;;;;;;13.20;84.20;;;;;;5074008;28;19978;-71
2023/12/07 06:30:41;;;;;;;;;;;13.30;84.80;;;;;;5074134;28;19931;-72
2023/12/07 06:33:06;;;;;;;;;;;13.40;84.50;;;;;;5073757;28;19909;-71
2023/12/07 06:35:32;;;;;;;;;;;13.20;84.50;;;;;;5074195;28;19961;-72
2023/12/07 06:37:58;;;;;;;;;;;13.30;84.40;;;;;;5073002;28;20003;-72
2023/12/07 06:40:24;;;;;;;;;;;13.30;84.90;;;;;;5073608;28;19923;-73
2023/12/07 06:42:49;;;;;;;;;;;13.30;84.40;;;;;;5073569;28;19909;-71
2023/12/07 06:45:15;;;;;;;;;;;13.20;84.60;;;;;;5073427;28;19999;-71
2023/12/07 06:47:42;;;;;;;;;;;13.20;84.20;;;;;;5073429;28;19909;-71
2023/12/07 06:50:09;;;;;;;;;;;13.30;84.50;;;;;;5073550;28;19974;-71
2023/12/07 06:52:38;;;;;;;;;;;13.20;80.30;;;;;;5073578;28;19908;-77
2023/12/07 06:55:04;;;;;;;;;;;13.20;84.70;;;;;;5073463;28;19909;-77
2023/12/07 06:57:30;;;;;;;;;;;13.20;82.50;;;;;;5073847;28;19919;-76
2023/12/07 06:59:56;;;;;;;;;;;13.20;84.30;;;;;;5073433;28;19916;-77
2023/12/07 07:02:23;;;;;;;;;;;13.00;83.60;;;;;;5073156;28;19928;-78
2023/12/07 07:04:49;;;;;;;;;;;13.10;84.10;;;;;;5073708;28;19958;-80
2023/12/07 07:07:14;;;;;;;;;;;13.00;84.10;;;;;;5073340;28;19923;-77
2023/12/07 07:09:40;;;;;;;;;;;13.10;84.10;;;;;;5073334;28;19908;-77
2023/12/07 07:12:05;;;;;;;;;;;13.10;84.20;;;;;;5073237;28;20412;-79
2023/12/07 07:14:31;;;;;;;;;;;12.90;83.60;;;;;;5073209;28;19915;-76
2023/12/07 07:16:56;;;;;;;;;;;13.20;84.40;;;;;;5073273;28;20003;-76
2023/12/07 07:19:22;;;;;;;;;;;13.10;84.30;;;;;;5073659;28;19920;-77
2023/12/07 07:21:47;;;;;;;;;;;13.00;84.10;;;;;;5073166;28;19913;-76
2023/12/07 07:24:14;;;;;;;;;;;12.90;84.00;;;;;;5073045;28;19955;-76
2023/12/07 07:26:39;;;;;;;;;;;12.90;84.20;;;;;;5072957;28;19951;-76
2023/12/07 07:29:06;;;;;;;;;;;12.90;84.10;;;;;;5072946;28;19909;-76
2023/12/07 07:31:31;;;;;;;;;;;12.90;84.50;;;;;;5072839;28;20378;-73
2023/12/07 07:33:57;;;;;;;;;;;13.00;84.40;;;;;;5072919;28;19986;-72
2023/12/07 07:36:22;;;;;;;;;;;12.90;84.50;;;;;;5072816;28;20006;-73
2023/12/07 07:38:48;;;;;;;;;;;12.90;84.40;;;;;;5072716;28;19978;-73
2023/12/07 07:41:14;;;;;;;;;;;12.90;84.40;;;;;;5072665;28;20011;-72
2023/12/07 07:43:39;;;;;;;;;;;12.80;84.00;;;;;;5072712;28;19908;-73
2023/12/07 07:46:06;;;;;;;;;;;12.80;84.30;;;;;;5072592;28;20290;-75
2023/12/07 07:48:32;;;;;;;;;;;12.90;84.40;;;;;;5072933;28;19908;-74
2023/12/07 07:50:58;;;;;;;;;;;12.80;84.20;;;;;;5072578;28;20449;-74
2023/12/07 07:53:24;;;;;;;;;;;12.80;84.10;;;;;;5072518;28;19955;-73
2023/12/07 07:55:49;;;;;;;;;;;12.60;84.10;;;;;;5072581;28;19913;-72
2023/12/07 07:58:15;;;;;;;;;;;12.80;84.10;;;;;;5072328;28;19987;-74
2023/12/07 08:00:41;;;;;;;;;;;12.80;84.00;;;;;;5072890;28;19912;-73
2023/12/07 08:03:07;;;;;;;;;;;12.70;83.80;;;;;;5072181;28;19927;-74
2023/12/07 08:05:33;;;;;;;;;;;12.70;84.20;;;;;;5072703;28;19999;-73
2023/12/07 08:07:59;;;;;;;;;;;12.80;84.40;;;;;;5072756;28;19940;-72
2023/12/07 08:10:25;;;;;;;;;;;12.80;84.50;;;;;;5072664;28;20286;-73
2023/12/07 08:12:51;;;;;;;;;;;12.80;84.30;;;;;;5072333;28;19908;-74
2023/12/07 08:15:17;;;;;;;;;;;12.70;84.40;;;;;;5072629;28;19909;-72
2023/12/07 08:17:42;;;;;;;;;;;12.70;83.70;;;;;;5072865;28;20465;-75
2023/12/07 08:20:12;;;;;;;;;;;12.70;84.30;;;;;;5072298;28;19920;-75
2023/12/07 08:22:54;;;;;;;;;;;12.70;83.90;;;;;;5070752;28;19908;-75
2023/12/07 08:25:21;;;;;;;;;;;12.70;84.20;;;;;;5072286;28;19995;-74
2023/12/07 08:27:47;;;;;;;;;;;12.60;83.70;;;;;;5072326;28;19908;-73
2023/12/07 08:30:13;;;;;;;;;;;12.70;84.00;;;;;;5072304;28;19909;-73
2023/12/07 08:32:39;;;;;;;;;;;12.50;83.90;;;;;;5072235;28;20010;-73
2023/12/07 08:35:05;;;;;;;;;;;12.70;84.30;;;;;;5072231;28;19915;-73
2023/12/07 08:37:32;;;;;;;;;;;12.60;83.50;;;;;;5072516;28;19908;-74
2023/12/07 08:39:58;;;;;;;;;;;12.60;84.70;;;;;;5072329;28;20298;-73
2023/12/07 08:42:26;;;;;;;;;;;12.70;84.40;;;;;;5072346;28;19912;-71
2023/12/07 08:44:52;;;;;;;;;;;12.60;84.60;;;;;;5072303;28;19908;-75
2023/12/07 08:47:18;;;;;;;;;;;12.60;84.80;;;;;;5072034;28;19916;-72
2023/12/07 08:49:46;;;;;;;;;;;;;;;;;;5071877;28;20355;-72
2023/12/07 08:52:12;;;;;;;;;;;12.50;82.30;;;;;;5072254;28;19915;-72
2023/12/07 08:54:38;;;;;;;;;;;12.60;84.60;;;;;;5072210;28;19908;-72
2023/12/07 08:57:03;;;;;;;;;;;12.60;84.60;;;;;;5072297;28;20286;-72
2023/12/07 08:59:32;;;;;;;;;;;12.70;84.30;;;;;;5072162;28;20011;-72
2023/12/07 09:01:58;;;;;;;;;;;12.50;84.00;;;;;;5075089;28;19920;-72
2023/12/07 09:04:24;;;;;;;;;;;12.50;84.60;;;;;;5076019;28;20004;-74
2023/12/07 09:06:50;;;;;;;;;;;12.60;84.50;;;;;;5075860;28;19920;-73
2023/12/07 09:09:16;;;;;;;;;;;12.50;84.40;;;;;;5075770;28;19908;-74
2023/12/07 09:11:43;;;;;;;;;;;12.50;84.80;;;;;;5075739;28;19927;-74
2023/12/07 09:14:09;;;;;;;;;;;12.60;85.00;;;;;;5075799;28;19965;-74
2023/12/07 09:16:35;;;;;;;;;;;12.60;85.10;;;;;;5075659;28;19915;-72
2023/12/07 09:19:01;;;;;;;;;;;12.60;85.20;;;;;;5075549;28;19916;-72
2023/12/07 09:21:27;;;;;;;;;;;12.60;85.10;;;;;;5075584;28;19908;-72
2023/12/07 09:23:53;;;;;;;;;;;12.60;85.10;;;;;;5075515;28;19915;-72
2023/12/07 09:26:19;;;;;;;;;;;12.60;85.20;;;;;;5075164;28;20333;-72
2023/12/07 09:28:46;;;;;;;;;;;12.70;85.30;;;;;;5075512;28;19912;-72
2023/12/07 09:31:12;;;;;;;;;;;12.70;85.30;;;;;;5076032;28;19986;-72
2023/12/07 09:33:38;;;;;;;;;;;12.70;85.20;;;;;;5075076;28;19908;-71
2023/12/07 09:36:07;;;;;;;;;;;12.50;85.20;;;;;;5075066;28;19908;-72
2023/12/07 09:38:35;;;;;;;;;;;12.70;83.80;;;;;;5075208;28;19962;-70
2023/12/07 09:41:02;;;;;;;;;;;12.70;85.30;;;;;;5075220;28;20259;-72
2023/12/07 09:43:28;;;;;;;;;;;12.80;85.50;;;;;;5075238;28;20255;-74
2023/12/07 09:45:54;;;;;;;;;;;12.80;85.00;;;;;;5075234;28;19909;-74
2023/12/07 09:48:20;;;;;;;;;;;12.70;85.50;;;;;;5075190;28;19908;-74
2023/12/07 09:50:46;;;;;;;;;;;12.70;85.70;;;;;;5075025;28;19909;-74
2023/12/07 09:53:12;;;;;;;;;;;12.80;85.60;;;;;;5075087;28;19908;-74
2023/12/07 09:55:38;;;;;;;;;;;12.80;85.40;;;;;;5056849;28;19908;-74
2023/12/07 09:58:04;;;;;;;;;;;12.90;85.60;;;;;;5074928;28;19908;-74
2023/12/07 10:00:30;;;;;;;;;;;12.80;85.50;;;;;;5075344;28;19939;-72
2023/12/07 10:02:56;;;;;;;;;;;12.80;84.90;;;;;;5074351;28;20379;-72
2023/12/07 10:05:21;;;;;;;;;;;12.60;85.20;;;;;;5074579;28;19912;-72
2023/12/07 10:07:48;;;;;;;;;;;12.80;85.30;;;;;;5074682;28;19936;-72
2023/12/07 10:10:14;;;;;;;;;;;12.90;85.60;;;;;;5074547;28;19939;-72
2023/12/07 10:12:53;;;;;;;;;;;12.90;85.60;;;;;;5074666;28;20520;-72
2023/12/07 10:15:19;;;;;;;;;;;12.80;79.90;;;;;;5074475;28;19916;-71
2023/12/07 10:17:47;;;;;;;;;;;12.80;84.60;;;;;;5074362;28;20314;-72
2023/12/07 10:20:12;;;;;;;;;;;12.90;85.40;;;;;;5074143;28;19923;-72
2023/12/07 10:22:38;;;;;;;;;;;12.80;83.90;;;;;;5074221;28;19912;-72
2023/12/07 10:25:04;;;;;;;;;;;12.80;85.60;;;;;;5074166;28;19916;-72
2023/12/07 10:27:29;;;;;;;;;;;12.80;84.70;;;;;;5074196;28;19908;-72
2023/12/07 10:29:58;;;;;;;;;;;12.90;85.20;;;;;;5074558;28;20377;-74
2023/12/07 10:32:24;;;;;;;;;;;12.80;85.50;;;;;;5074269;28;19908;-74
2023/12/07 10:34:50;;;;;;;;;;;12.70;85.10;;;;;;5074217;28;19928;-74
2023/12/07 10:37:15;;;;;;;;;;;12.80;85.20;;;;;;5073952;28;19916;-74
2023/12/07 10:39:41;;;;;;;;;;;12.80;85.20;;;;;;5074126;28;19916;-74
2023/12/07 10:42:08;;;;;;;;;;;12.90;85.20;;;;;;5073827;28;19912;-72
2023/12/07 10:44:35;;;;;;;;;;;12.90;85.70;;;;;;5073807;28;19975;-72
2023/12/07 10:47:01;;;;;;;;;;;12.90;85.70;;;;;;5073694;28;19915;-72
2023/12/07 10:49:27;;;;;;;;;;;12.90;85.50;;;;;;5073682;28;19909;-72
2023/12/07 10:51:59;;;;;;;;;;;13.00;85.60;;;;;;5055718;28;20334;-72
2023/12/07 10:54:26;;;;;;;;;;;13.00;80.10;;;;;;5073872;28;19972;-72
2023/12/07 10:56:52;;;;;;;;;;;12.90;85.50;;;;;;5074056;28;19979;-72
2023/12/07 10:59:19;;;;;;;;;;;12.90;85.00;;;;;;5073333;28;20598;-72
2023/12/07 11:01:45;;;;;;;;;;;12.90;84.70;;;;;;5073340;28;19914;-72
2023/12/07 11:04:11;;;;;;;;;;;13.00;85.40;;;;;;5073200;28;20003;-72
2023/12/07 11:06:38;;;;;;;;;;;13.00;85.20;;;;;;5073387;28;19908;-72
2023/12/07 11:09:08;;;;;;;;;;;12.90;85.40;;;;;;5072909;28;20408;-72
2023/12/07 11:11:46;;;;;;;;;;;13.00;85.60;;;;;;5073276;28;19948;-71
2023/12/07 11:14:12;;;;;;;;;;;13.00;80.30;;;;;;5073146;28;19909;-72
2023/12/07 11:16:41;;;;;;;;;;;13.00;85.60;;;;;;5073426;28;19908;-72
2023/12/07 11:19:25;;;;;;;;;;;13.00;85.60;;;;;;5072940;28;19924;-73
2023/12/07 11:21:50;;;;;;;;;;;13.10;80.40;;;;;;5073068;28;19908;-73
2023/12/07 11:24:17;;;;;;;;;;;13.00;85.30;;;;;;5072502;28;20007;-73
2023/12/07 11:26:44;;;;;;;;;;;13.00;85.20;;;;;;5073535;28;19909;-71
2023/12/07 11:29:10;;;;;;;;;;;13.00;85.40;;;;;;5072880;28;19962;-73
2023/12/07 11:31:36;;;;;;;;;;;13.10;85.00;;;;;;5072835;28;19916;-73
2023/12/07 11:34:07;;;;;;;;;;;13.10;86.00;;;;;;5073140;28;19962;-74
2023/12/07 11:36:33;;;;;;;;;;;13.10;80.60;;;;;;5073212;28;19934;-73
2023/12/07 11:39:08;;;;;;;;;;;13.10;85.80;;;;;;5072978;28;19916;-73
2023/12/07 11:41:53;;;;;;;;;;;13.10;80.70;;;;;;5071159;28;19908;-73
2023/12/07 11:44:19;;;;;;;;;;;13.20;86.30;;;;;;5072916;28;20413;-74
2023/12/07 11:46:45;;;;;;;;;;;13.20;86.00;;;;;;5072733;28;19909;-74
2023/12/07 11:49:11;;;;;;;;;;;13.10;85.60;;;;;;5072588;28;20366;-73
2023/12/07 11:51:38;;;;;;;;;;;13.20;86.20;;;;;;5072934;28;20373;-74
2023/12/07 11:54:04;;;;;;;;;;;13.30;85.90;;;;;;5073108;28;20394;-73
2023/12/07 11:56:30;;;;;;;;;;;13.20;85.80;;;;;;5072733;28;19909;-73
2023/12/07 11:58:57;;;;;;;;;;;13.30;85.80;;;;;;5072453;28;19938;-72
2023/12/07 12:01:24;;;;;;;;;;;13.30;85.30;;;;;;5072425;28;19909;-73
2023/12/07 12:03:50;;;;;;;;;;;13.30;85.90;;;;;;5072372;28;20361;-73
2023/12/07 12:06:17;;;;;;;;;;;13.40;85.80;;;;;;5072542;28;19912;-73
2023/12/07 12:08:43;;;;;;;;;;;13.20;86.00;;;;;;5072798;28;19948;-74
2023/12/07 12:11:09;;;;;;;;;;;13.50;85.60;;;;;;5072394;28;19958;-75
2023/12/07 12:13:36;;;;;;;;;;;13.40;85.40;;;;;;5072324;28;20007;-74
2023/12/07 12:16:02;;;;;;;;;;;13.50;85.60;;;;;;5072384;28;20363;-73
2023/12/07 12:18:28;;;;;;;;;;;13.50;84.70;;;;;;5072578;28;20280;-75
2023/12/07 12:20:54;;;;;;;;;;;13.60;85.40;;;;;;5072562;28;20022;-73
2023/12/07 12:23:20;;;;;;;;;;;13.50;85.50;;;;;;5073062;28;20386;-74
2023/12/07 12:25:47;;;;;;;;;;;13.50;85.70;;;;;;5072995;28;19954;-74
2023/12/07 12:28:15;;;;;;;;;;;13.50;85.90;;;;;;5072543;28;19939;-74
2023/12/07 12:30:42;;;;;;;;;;;13.50;86.00;;;;;;5072500;28;19987;-74
2023/12/07 12:33:07;;;;;;;;;;;13.50;85.90;;;;;;5072564;28;19932;-73
2023/12/07 12:35:33;;;;;;;;;;;13.50;86.30;;;;;;5073153;28;20366;-73
2023/12/07 12:37:59;;;;;;;;;;;13.70;86.10;;;;;;5076387;28;19999;-73
2023/12/07 12:40:27;;;;;;;;;;;13.40;86.00;;;;;;5076293;28;19977;-73
2023/12/07 12:42:54;;;;;;;;;;;13.60;86.20;;;;;;5076395;28;19916;-76
2023/12/07 12:45:20;;;;;;;;;;;13.40;86.40;;;;;;5077523;28;19909;-86
2023/12/07 12:47:47;;;;;;;;;;;13.20;85.90;;;;;;5076340;28;19908;-74
2023/12/07 12:50:32;;;;;;;;;;;13.50;86.80;;;;;;5076204;28;19962;-74
2023/12/07 12:52:58;;;;;;;;;;;13.50;86.80;;;;;;5076166;28;19909;-74
2023/12/07 12:55:28;;;;;;;;;;;13.50;86.80;;;;;;5075983;28;19912;-73
2023/12/07 12:57:55;;;;;;;;;;;13.50;81.40;;;;;;5076073;28;20486;-74
2023/12/07 13:00:21;;;;;;;;;;;13.60;87.10;;;;;;5075671;28;19970;-74
2023/12/07 13:02:47;;;;;;;;;;;13.50;86.30;;;;;;5075749;28;19939;-73
2023/12/07 13:05:13;;;;;;;;;;;13.60;87.00;;;;;;5076042;28;19912;-73
2023/12/07 13:07:39;;;;;;;;;;;13.50;86.90;;;;;;5075776;28;20294;-74
2023/12/07 13:10:08;;;;;;;;;;;13.60;86.90;;;;;;5075566;28;20014;-73
2023/12/07 13:12:35;;;;;;;;;;;13.50;85.50;;;;;;5075744;28;20263;-73
2023/12/07 13:15:01;;;;;;;;;;;13.60;86.60;;;;;;5075767;28;19915;-73
2023/12/07 13:17:27;;;;;;;;;;;13.50;86.70;;;;;;5075713;28;19995;-73
2023/12/07 13:19:54;;;;;;;;;;;13.60;87.10;;;;;;5076114;28;20327;-73
2023/12/07 13:22:20;;;;;;;;;;;13.70;87.00;;;;;;5075609;28;20050;-73
2023/12/07 13:24:47;;;;;;;;;;;13.60;86.90;;;;;;5075564;28;19946;-73
2023/12/07 13:27:15;;;;;;;;;;;13.70;87.10;;;;;;5075487;28;20007;-73
2023/12/07 13:29:41;;;;;;;;;;;13.60;86.20;;;;;;5075554;28;19915;-73
2023/12/07 13:32:07;;;;;;;;;;;13.70;86.80;;;;;;5075543;28;19908;-74
2023/12/07 13:34:33;;;;;;;;;;;13.60;86.80;;;;;;5075384;28;20259;-75
2023/12/07 13:36:59;;;;;;;;;;;13.70;87.00;;;;;;5075102;28;19912;-74
2023/12/07 13:39:26;;;;;;;;;;;13.60;86.90;;;;;;5075300;28;20003;-74
2023/12/07 13:41:52;;;;;;;;;;;13.60;86.80;;;;;;5075321;28;20377;-74
2023/12/07 13:44:19;;;;;;;;;;;13.80;86.80;;;;;;5075206;28;19912;-74
2023/12/07 13:46:45;;;;;;;;;;;13.70;86.90;;;;;;5074759;28;19908;-74
2023/12/07 13:49:11;;;;;;;;;;;13.70;86.80;;;;;;5075340;28;20374;-74
2023/12/07 13:51:37;;;;;;;;;;;13.60;86.30;;;;;;5075049;28;20247;-74
2023/12/07 13:54:04;;;;;;;;;;;13.70;87.00;;;;;;5075090;28;20261;-74
2023/12/07 13:56:29;;;;;;;;;;;13.80;86.50;;;;;;5075043;28;19908;-75
2023/12/07 13:58:55;;;;;;;;;;;13.70;86.50;;;;;;5074795;28;20359;-74
2023/12/07 14:01:22;;;;;;;;;;;13.70;86.10;;;;;;5074643;28;20352;-73
2023/12/07 14:03:48;;;;;;;;;;;13.70;87.00;;;;;;5074397;28;20399;-74
2023/12/07 14:06:21;;;;;;;;;;;13.80;86.40;;;;;;5074758;28;19912;-73
2023/12/07 14:08:47;;;;;;;;;;;13.70;81.50;;;;;;5074733;28;19931;-76
2023/12/07 14:11:13;;;;;;;;;;;13.80;86.60;;;;;;5074705;28;20359;-74
2023/12/07 14:13:39;;;;;;;;;;;13.80;86.40;;;;;;5074603;28;19912;-74